createdAt,value
2022-11-20T00:00:57.403Z,9.40
2022-11-20T00:03:27.190Z,9.87
2022-11-20T00:05:55.192Z,9.93
2022-11-20T00:08:23.175Z,9.87
2022-11-20T00:10:51.244Z,9.97
2022-11-20T00:13:19.235Z,9.03
2022-11-20T00:15:47.268Z,10.47
2022-11-20T00:18:15.349Z,9.73
2022-11-20T00:20:44.700Z,9.83
2022-11-20T00:23:12.729Z,9.80
2022-11-20T00:25:40.751Z,10.07
2022-11-20T00:28:08.760Z,9.97
2022-11-20T00:30:36.795Z,10.20
2022-11-20T00:33:04.960Z,9.90
2022-11-20T00:35:32.986Z,9.77
2022-11-20T00:38:02.359Z,8.67
2022-11-20T00:40:30.382Z,9.50
2022-11-20T00:42:58.426Z,8.53
2022-11-20T00:45:26.432Z,9.77
2022-11-20T00:47:54.466Z,8.57
2022-11-20T00:50:22.516Z,8.77
2022-11-20T00:52:50.608Z,9.63
2022-11-20T00:55:19.976Z,8.80
2022-11-20T00:57:47.981Z,8.70
2022-11-20T01:00:16.484Z,9.20
2022-11-20T01:02:44.475Z,9.17
2022-11-20T01:05:12.514Z,10.23
2022-11-20T01:07:40.549Z,10.20
2022-11-20T01:10:09.469Z,9.63
2022-11-20T01:12:38.865Z,9.80
2022-11-20T01:15:07.713Z,9.80
2022-11-20T01:17:35.717Z,9.80
2022-11-20T01:20:03.806Z,10.20
2022-11-20T01:22:31.790Z,9.30
2022-11-20T01:24:59.777Z,9.70
2022-11-20T01:27:27.787Z,10.00
2022-11-20T01:30:01.085Z,10.17
2022-11-20T01:32:29.540Z,10.23
2022-11-20T01:34:57.497Z,10.67
2022-11-20T01:37:25.588Z,10.27
2022-11-20T01:39:53.566Z,10.23
2022-11-20T01:42:39.036Z,10.50
2022-11-20T01:45:40.540Z,10.97
2022-11-20T01:48:10.133Z,11.23
2022-11-20T01:50:38.133Z,10.60
2022-11-20T01:53:10.075Z,10.00
2022-11-20T01:55:41.884Z,9.97
2022-11-20T01:58:10.889Z,10.37
2022-11-20T02:00:38.918Z,10.03
2022-11-20T02:03:13.316Z,10.27
2022-11-20T02:05:47.335Z,10.17
2022-11-20T02:08:15.943Z,9.87
2022-11-20T02:10:43.948Z,9.30
2022-11-20T02:13:29.676Z,11.00
2022-11-20T02:15:57.845Z,9.43
2022-11-20T02:18:27.936Z,11.17
2022-11-20T02:21:01.213Z,8.90
2022-11-20T02:23:35.458Z,9.20
2022-11-20T02:26:07.973Z,9.00
2022-11-20T02:28:36.033Z,8.77
2022-11-20T02:31:04.059Z,9.67
2022-11-20T02:33:32.177Z,9.63
2022-11-20T02:36:00.220Z,8.83
2022-11-20T02:38:28.383Z,8.33
2022-11-20T02:40:56.427Z,8.50
2022-11-20T02:43:25.916Z,9.60
2022-11-20T02:45:53.928Z,8.67
2022-11-20T02:48:24.549Z,9.43
2022-11-20T02:50:53.369Z,9.57
2022-11-20T02:53:21.367Z,9.40
2022-11-20T02:55:49.364Z,9.50
2022-11-20T02:58:17.344Z,8.73
2022-11-20T03:00:47.186Z,10.33
2022-11-20T03:03:15.198Z,9.40
2022-11-20T03:05:43.224Z,10.20
2022-11-20T03:08:11.220Z,9.60
2022-11-20T03:10:39.203Z,9.73
2022-11-20T03:13:07.314Z,10.20
2022-11-20T03:15:35.346Z,10.07
2022-11-20T03:18:04.893Z,9.70
2022-11-20T03:20:35.048Z,10.83
2022-11-20T03:23:03.653Z,10.80
2022-11-20T03:25:31.641Z,10.30
2022-11-20T03:27:59.694Z,10.33
2022-11-20T03:30:30.766Z,10.93
2022-11-20T03:32:59.260Z,10.47
2022-11-20T03:35:28.667Z,10.47
2022-11-20T03:37:56.650Z,11.27
2022-11-20T03:40:24.629Z,10.10
2022-11-20T03:42:52.643Z,10.43
2022-11-20T03:45:21.172Z,10.83
2022-11-20T03:47:49.224Z,10.83
2022-11-20T03:50:17.349Z,10.23
2022-11-20T03:52:46.717Z,11.67
2022-11-20T03:55:14.692Z,10.60
2022-11-20T03:57:42.739Z,10.27
2022-11-20T04:00:11.985Z,10.63
2022-11-20T04:02:39.968Z,10.30
2022-11-20T04:05:08.794Z,10.57
2022-11-20T04:07:37.344Z,11.43
2022-11-20T04:10:07.717Z,11.73
2022-11-20T04:12:35.813Z,10.50
2022-11-20T04:15:04.010Z,10.67
2022-11-20T04:17:31.991Z,10.73
2022-11-20T04:19:59.977Z,11.40
2022-11-20T04:22:27.996Z,11.40
2022-11-20T04:24:56.008Z,12.27
2022-11-20T04:27:25.401Z,11.07
2022-11-20T04:29:53.413Z,11.17
2022-11-20T04:32:21.491Z,11.70
2022-11-20T04:34:49.507Z,10.73
2022-11-20T04:37:17.515Z,11.37
2022-11-20T04:39:45.736Z,11.27
2022-11-20T04:42:31.542Z,12.07
2022-11-20T04:45:00.905Z,11.47
2022-11-20T04:47:28.892Z,10.30
2022-11-20T04:49:57.057Z,11.83
2022-11-20T04:52:25.159Z,11.63
2022-11-20T04:54:54.424Z,11.73
2022-11-20T04:57:22.477Z,11.40
2022-11-20T04:59:50.487Z,11.03
2022-11-20T05:02:20.177Z,10.70
2022-11-20T05:04:48.273Z,11.03
2022-11-20T05:07:16.308Z,10.87
2022-11-20T05:09:44.430Z,10.83
2022-11-20T05:12:12.655Z,11.23
2022-11-20T05:14:40.625Z,10.90
2022-11-20T05:17:11.620Z,11.20
2022-11-20T05:19:41.177Z,11.20
2022-11-20T05:22:09.193Z,11.63
2022-11-20T05:24:37.169Z,11.40
2022-11-20T05:27:05.416Z,10.97
2022-11-20T05:29:33.386Z,10.53
2022-11-20T05:32:01.487Z,10.90
2022-11-20T05:34:29.530Z,10.80
2022-11-20T05:36:58.900Z,10.87
2022-11-20T05:39:26.902Z,10.37
2022-11-20T05:42:21.474Z,10.83
2022-11-20T05:44:49.549Z,10.53
2022-11-20T05:47:17.502Z,10.60
2022-11-20T05:49:45.779Z,10.70
2022-11-20T05:52:15.216Z,9.87
2022-11-20T05:54:43.377Z,10.87
2022-11-20T05:57:11.336Z,10.60
2022-11-20T05:59:39.395Z,11.00
2022-11-20T06:02:07.551Z,11.40
2022-11-20T06:04:35.551Z,10.90
2022-11-20T06:07:03.679Z,11.63
2022-11-20T06:09:33.186Z,10.40
2022-11-20T06:12:01.185Z,11.23
2022-11-20T06:14:29.248Z,9.47
2022-11-20T06:16:57.278Z,10.97
2022-11-20T06:19:25.428Z,10.00
2022-11-20T06:21:53.487Z,10.10
2022-11-20T06:24:21.474Z,9.77
2022-11-20T06:26:50.904Z,9.50
2022-11-20T06:29:19.157Z,9.47
2022-11-20T06:31:47.301Z,10.13
2022-11-20T06:34:15.353Z,9.83
2022-11-20T06:36:43.348Z,9.70
2022-11-20T06:39:11.601Z,9.57
2022-11-20T06:41:39.627Z,10.30
2022-11-20T06:44:09.003Z,10.47
2022-11-20T06:46:37.029Z,9.53
2022-11-20T06:49:05.062Z,9.87
2022-11-20T06:51:33.100Z,10.30
2022-11-20T06:54:01.933Z,9.57
2022-11-20T06:56:30.076Z,9.83
2022-11-20T06:58:58.087Z,9.53
2022-11-20T07:01:27.509Z,9.60
2022-11-20T07:03:56.045Z,9.87
2022-11-20T07:06:24.072Z,10.17
2022-11-20T07:08:53.782Z,10.20
2022-11-20T07:11:21.882Z,10.30
2022-11-20T07:13:49.888Z,10.70
2022-11-20T07:16:18.121Z,10.73
2022-11-20T07:18:50.415Z,11.20
2022-11-20T07:21:19.111Z,10.67
2022-11-20T07:23:47.093Z,10.93
2022-11-20T07:26:15.056Z,11.63
2022-11-20T07:28:46.646Z,11.87
2022-11-20T07:31:18.831Z,12.10
2022-11-20T07:33:49.075Z,12.57
2022-11-20T07:36:17.104Z,12.93
2022-11-20T07:38:45.100Z,14.03
2022-11-20T07:41:13.119Z,11.13
2022-11-20T07:43:41.775Z,11.00
2022-11-20T07:46:10.121Z,11.83
2022-11-20T07:48:38.203Z,12.40
2022-11-20T07:51:07.642Z,12.60
2022-11-20T07:53:35.673Z,15.00
2022-11-20T07:56:04.117Z,13.10
2022-11-20T07:58:33.964Z,11.87
2022-11-20T08:01:05.199Z,14.30
2022-11-20T08:03:33.391Z,16.00
2022-11-20T08:06:01.864Z,15.47
2022-11-20T08:08:33.842Z,14.67
2022-11-20T08:11:16.434Z,13.53
2022-11-20T08:14:01.644Z,12.87
2022-11-20T08:16:29.880Z,12.07
2022-11-20T08:18:58.364Z,12.03
2022-11-20T08:21:26.368Z,16.87
2022-11-20T08:23:55.748Z,14.10
2022-11-20T08:26:24.314Z,13.20
2022-11-20T08:28:56.272Z,13.17
2022-11-20T08:31:24.943Z,13.20
2022-11-20T08:33:53.247Z,11.57
2022-11-20T08:36:22.130Z,12.20
2022-11-20T08:38:50.759Z,11.13
2022-11-20T08:41:26.750Z,12.43
2022-11-20T08:43:59.525Z,12.07
2022-11-20T08:46:29.640Z,11.77
2022-11-20T08:48:57.721Z,11.23
2022-11-20T08:51:25.747Z,11.90
2022-11-20T08:53:53.717Z,11.43
2022-11-20T08:56:23.123Z,10.90
2022-11-20T08:59:20.247Z,11.13
2022-11-20T09:01:40.601Z,10.93
2022-11-20T09:04:08.840Z,11.13
2022-11-20T09:06:36.845Z,10.70
2022-11-20T09:09:06.872Z,10.30
2022-11-20T09:11:37.352Z,9.40
2022-11-20T09:14:05.581Z,10.10
2022-11-20T09:16:33.597Z,10.40
2022-11-20T09:19:33.586Z,9.87
2022-11-20T09:21:49.915Z,9.73
2022-11-20T09:24:17.969Z,10.00
2022-11-20T09:26:47.326Z,10.50
2022-11-20T09:29:15.339Z,10.30
2022-11-20T09:31:43.349Z,10.53
2022-11-20T09:34:11.369Z,9.50
2022-11-20T09:36:39.366Z,9.90
2022-11-20T09:39:07.334Z,8.80
2022-11-20T09:42:12.381Z,9.47
2022-11-20T09:44:54.213Z,9.60
2022-11-20T09:47:32.993Z,9.67
2022-11-20T09:50:14.427Z,9.97
2022-11-20T09:52:52.068Z,9.93
2022-11-20T09:55:20.489Z,9.53
2022-11-20T09:57:53.027Z,8.87
2022-11-20T10:00:22.268Z,9.27
2022-11-20T10:02:57.204Z,9.53
2022-11-20T10:05:29.984Z,9.83
2022-11-20T10:08:10.012Z,9.70
2022-11-20T10:10:45.736Z,9.47
2022-11-20T10:13:29.094Z,8.80
2022-11-20T10:16:10.554Z,8.80
2022-11-20T10:18:53.595Z,8.63
2022-11-20T10:21:33.944Z,9.07
2022-11-20T10:24:32.580Z,8.23
2022-11-20T10:27:07.693Z,8.37
2022-11-20T10:29:39.994Z,9.37
2022-11-20T10:32:16.003Z,9.23
2022-11-20T10:34:52.914Z,8.60
2022-11-20T10:37:25.240Z,8.87
2022-11-20T10:39:58.846Z,8.93
2022-11-20T10:42:34.117Z,8.93
2022-11-20T10:45:15.688Z,8.17
2022-11-20T10:47:43.728Z,8.30
2022-11-20T10:50:21.685Z,7.67
2022-11-20T10:52:58.144Z,8.63
2022-11-20T10:55:32.412Z,8.77
2022-11-20T10:58:08.080Z,8.40
2022-11-20T11:00:37.505Z,9.00
2022-11-20T11:03:24.656Z,8.90
2022-11-20T11:05:56.948Z,8.63
2022-11-20T11:08:28.560Z,8.27
2022-11-20T11:10:59.772Z,9.17
2022-11-20T11:13:29.344Z,8.40
2022-11-20T11:15:59.308Z,8.53
2022-11-20T11:18:29.474Z,8.70
2022-11-20T11:20:58.668Z,9.23
2022-11-20T11:23:35.409Z,8.63
2022-11-20T11:26:05.316Z,8.53
2022-11-20T11:28:33.580Z,8.23
2022-11-20T11:31:02.968Z,7.67
2022-11-20T11:33:34.598Z,22.23
2022-11-20T11:36:05.670Z,28.30
2022-11-20T11:38:37.482Z,10.03
2022-11-20T11:41:07.200Z,9.17
2022-11-20T11:43:54.414Z,8.77
2022-11-20T11:46:34.029Z,9.13
2022-11-20T11:49:04.051Z,7.87
2022-11-20T11:51:40.002Z,9.30
2022-11-20T11:54:19.009Z,9.70
2022-11-20T11:56:48.087Z,8.73
2022-11-20T11:59:24.496Z,8.90
2022-11-20T12:01:59.114Z,8.63
2022-11-20T12:04:42.488Z,10.07
2022-11-20T12:07:44.726Z,9.50
2022-11-20T12:10:08.136Z,12.10
2022-11-20T12:12:41.947Z,11.40
2022-11-20T12:15:13.066Z,9.77
2022-11-20T12:17:42.488Z,9.80
2022-11-20T12:20:15.921Z,15.20
2022-11-20T12:22:53.852Z,11.03
2022-11-20T12:25:26.352Z,9.57
2022-11-20T12:28:30.271Z,9.23
2022-11-20T12:31:21.492Z,8.80
2022-11-20T12:34:13.344Z,9.70
2022-11-20T12:36:47.369Z,9.43
2022-11-20T12:39:32.271Z,9.07
2022-11-20T12:42:38.380Z,9.20
2022-11-20T12:45:25.125Z,8.37
2022-11-20T12:48:21.255Z,8.87
2022-11-20T12:51:14.942Z,9.50
2022-11-20T12:53:51.262Z,8.97
2022-11-20T12:56:32.767Z,8.53
2022-11-20T12:59:15.766Z,9.73
2022-11-20T13:01:51.453Z,8.17
2022-11-20T13:04:36.134Z,10.57
2022-11-20T13:07:08.563Z,11.63
2022-11-20T13:09:41.417Z,9.77
2022-11-20T13:12:16.264Z,10.77
2022-11-20T13:14:50.643Z,9.60
2022-11-20T13:17:24.773Z,8.03
2022-11-20T13:19:55.486Z,8.03
2022-11-20T13:22:29.505Z,8.43
2022-11-20T13:24:57.784Z,8.50
2022-11-20T13:27:26.297Z,8.87
2022-11-20T13:30:16.408Z,8.03
2022-11-20T13:32:51.797Z,9.40
2022-11-20T13:35:28.945Z,8.27
2022-11-20T13:38:10.721Z,7.43
2022-11-20T13:40:40.789Z,7.67
2022-11-20T13:43:23.830Z,6.97
2022-11-20T13:46:02.888Z,8.20
2022-11-20T13:48:34.329Z,6.57
2022-11-20T13:51:11.768Z,7.37
2022-11-20T13:54:13.443Z,7.37
2022-11-20T13:56:53.762Z,7.63
2022-11-20T13:59:42.389Z,8.17
2022-11-20T14:02:15.083Z,8.43
2022-11-20T14:04:47.887Z,7.17
2022-11-20T14:07:16.572Z,7.47
2022-11-20T14:09:55.408Z,6.93
2022-11-20T14:12:29.172Z,6.73
2022-11-20T14:14:57.406Z,7.47
2022-11-20T14:17:31.283Z,9.27
2022-11-20T14:20:03.547Z,9.10
2022-11-20T14:22:31.989Z,10.77
2022-11-20T14:25:08.142Z,11.53
2022-11-20T14:27:39.576Z,9.63
2022-11-20T14:30:08.860Z,8.37
2022-11-20T14:32:38.394Z,8.40
2022-11-20T14:35:11.511Z,8.30
2022-11-20T14:37:41.209Z,8.60
2022-11-20T14:43:04.089Z,8.47
2022-11-20T14:45:33.073Z,8.83
2022-11-20T14:48:02.333Z,9.13
2022-11-20T14:50:31.695Z,9.33
2022-11-20T14:53:01.809Z,10.03
2022-11-20T14:55:32.608Z,10.60
2022-11-20T14:58:04.270Z,10.93
2022-11-20T15:00:33.963Z,20.00
2022-11-20T15:03:02.535Z,13.77
2022-11-20T15:05:50.109Z,18.90
2022-11-20T15:08:19.093Z,20.13
2022-11-20T15:10:49.423Z,19.43
2022-11-20T15:13:27.218Z,11.97
2022-11-20T15:15:57.717Z,10.80
2022-11-20T15:18:39.213Z,15.10
2022-11-20T15:21:12.914Z,12.77
2022-11-20T15:23:41.237Z,10.70
2022-11-20T15:26:19.524Z,11.90
2022-11-20T15:28:51.307Z,10.43
2022-11-20T15:31:21.518Z,11.03
2022-11-20T15:33:50.090Z,11.57
2022-11-20T15:36:18.666Z,12.10
2022-11-20T15:38:46.987Z,12.53
2022-11-20T15:41:15.355Z,12.77
2022-11-20T15:43:43.571Z,13.53
2022-11-20T15:46:15.975Z,11.13
2022-11-20T15:48:48.573Z,11.03
2022-11-20T15:51:27.038Z,11.80
2022-11-20T15:53:57.209Z,10.50
2022-11-20T15:56:25.907Z,11.00
2022-11-20T15:58:54.453Z,10.80
2022-11-20T16:01:24.933Z,11.90
2022-11-20T16:03:53.293Z,13.00
2022-11-20T16:06:21.704Z,11.33
2022-11-20T16:08:49.955Z,13.80
2022-11-20T16:11:19.902Z,13.50
2022-11-20T16:14:05.649Z,11.00
2022-11-20T16:16:36.853Z,10.57
2022-11-20T16:19:07.057Z,10.77
2022-11-20T16:21:38.622Z,10.63
2022-11-20T16:24:09.351Z,10.43
2022-11-20T16:26:37.811Z,10.97
2022-11-20T16:29:07.634Z,10.97
2022-11-20T16:31:37.573Z,10.63
2022-11-20T16:34:11.860Z,10.30
2022-11-20T16:36:42.303Z,9.53
2022-11-20T16:39:10.590Z,10.20
2022-11-20T16:41:38.921Z,10.07
2022-11-20T16:44:10.311Z,9.73
2022-11-20T16:46:41.019Z,9.97
2022-11-20T16:49:14.730Z,10.00
2022-11-20T16:51:43.239Z,10.67
2022-11-20T16:54:16.433Z,30.00
2022-11-20T16:56:48.608Z,11.83
2022-11-20T16:59:17.071Z,11.30
2022-11-20T17:01:46.844Z,9.53
2022-11-20T17:04:15.205Z,10.30
2022-11-20T17:06:45.373Z,11.10
2022-11-20T17:09:13.983Z,14.73
2022-11-20T17:11:42.355Z,13.77
2022-11-20T17:14:12.144Z,11.87
2022-11-20T17:16:40.499Z,10.87
2022-11-20T17:19:12.637Z,11.53
2022-11-20T17:21:41.002Z,11.43
2022-11-20T17:24:12.110Z,12.30
2022-11-20T17:26:43.000Z,12.37
2022-11-20T17:29:13.842Z,13.30
2022-11-20T17:31:42.663Z,12.70
2022-11-20T17:34:14.815Z,11.13
2022-11-20T17:36:45.818Z,12.23
2022-11-20T17:39:15.590Z,12.77
2022-11-20T17:41:44.063Z,11.47
2022-11-20T17:44:13.621Z,12.10
2022-11-20T17:46:42.349Z,12.37
2022-11-20T17:49:11.941Z,13.37
2022-11-20T17:51:42.110Z,11.87
2022-11-20T17:54:12.623Z,12.23
2022-11-20T17:56:58.159Z,12.23
2022-11-20T17:59:26.475Z,12.20
2022-11-20T18:01:56.778Z,12.20
2022-11-20T18:04:29.360Z,12.10
2022-11-20T18:06:57.642Z,12.00
2022-11-20T18:09:25.843Z,12.27
2022-11-20T18:11:57.528Z,13.07
2022-11-20T18:14:36.558Z,14.10
2022-11-20T18:17:07.680Z,16.07
2022-11-20T18:19:47.730Z,14.57
2022-11-20T18:22:27.848Z,13.97
2022-11-20T18:24:56.193Z,15.13
2022-11-20T18:27:24.903Z,16.47
2022-11-20T18:29:53.549Z,14.80
2022-11-20T18:32:22.828Z,13.77
2022-11-20T18:34:53.028Z,14.93
2022-11-20T18:37:21.531Z,14.63
2022-11-20T18:39:50.572Z,14.60
2022-11-20T18:42:36.562Z,13.33
2022-11-20T18:45:05.930Z,12.50
2022-11-20T18:47:37.604Z,13.27
2022-11-20T18:50:09.996Z,14.60
2022-11-20T18:52:41.241Z,19.97
2022-11-20T18:55:10.168Z,14.97
2022-11-20T18:57:38.422Z,13.47
2022-11-20T19:00:09.658Z,12.47
2022-11-20T19:02:42.488Z,12.43
2022-11-20T19:05:13.475Z,12.47
2022-11-20T19:07:41.886Z,14.80
2022-11-20T19:10:10.498Z,14.90
2022-11-20T19:12:38.791Z,13.67
2022-11-20T19:15:07.875Z,14.20
2022-11-20T19:17:36.113Z,13.80
2022-11-20T19:20:04.571Z,12.97
2022-11-20T19:22:34.236Z,14.00
2022-11-20T19:25:02.492Z,12.67
2022-11-20T19:27:30.740Z,13.03
2022-11-20T19:30:03.237Z,12.83
2022-11-20T19:32:32.657Z,13.17
2022-11-20T19:35:01.022Z,13.13
2022-11-20T19:37:29.256Z,13.23
2022-11-20T19:39:59.826Z,13.87
2022-11-20T19:42:28.249Z,14.00
2022-11-20T19:44:58.150Z,12.53
2022-11-20T19:47:46.084Z,11.93
2022-11-20T19:50:15.994Z,14.63
2022-11-20T19:52:44.176Z,13.43
2022-11-20T19:55:13.980Z,13.70
2022-11-20T19:57:42.245Z,14.30
2022-11-20T20:00:12.420Z,17.17
2022-11-20T20:02:40.876Z,15.97
2022-11-20T20:05:09.453Z,21.20
2022-11-20T20:07:40.313Z,15.47
2022-11-20T20:10:09.728Z,13.60
2022-11-20T20:12:39.338Z,13.17
2022-11-20T20:15:08.893Z,12.80
2022-11-20T20:17:37.077Z,13.30
2022-11-20T20:20:06.172Z,14.57
2022-11-20T20:22:34.415Z,14.57
2022-11-20T20:25:02.736Z,14.07
2022-11-20T20:27:31.903Z,14.50
2022-11-20T20:30:01.554Z,14.83
2022-11-20T20:32:29.783Z,14.93
2022-11-20T20:34:58.132Z,13.97
2022-11-20T20:37:26.537Z,14.37
2022-11-20T20:39:54.806Z,16.50
2022-11-20T20:42:23.097Z,14.27
2022-11-20T20:45:11.241Z,15.60
2022-11-20T20:47:42.187Z,14.80
2022-11-20T20:50:13.265Z,13.77
2022-11-20T20:52:41.845Z,12.87
2022-11-20T20:55:11.162Z,13.70
2022-11-20T20:57:39.482Z,14.43
2022-11-20T21:00:08.869Z,14.00
2022-11-20T21:02:37.111Z,13.80
2022-11-20T21:05:07.496Z,13.67
2022-11-20T21:07:55.722Z,12.97
2022-11-20T21:10:24.275Z,13.53
2022-11-20T21:12:52.536Z,14.33
2022-11-20T21:15:20.824Z,15.60
2022-11-20T21:17:49.091Z,14.17
2022-11-20T21:20:32.793Z,14.47
2022-11-20T21:23:01.138Z,14.63
2022-11-20T21:25:29.564Z,14.23
2022-11-20T21:27:57.933Z,14.37
2022-11-20T21:30:26.127Z,14.67
2022-11-20T21:32:54.352Z,13.97
2022-11-20T21:35:24.160Z,13.60
2022-11-20T21:37:52.326Z,13.07
2022-11-20T21:40:20.608Z,14.43
2022-11-20T21:42:48.912Z,15.03
2022-11-20T21:45:17.277Z,14.33
2022-11-20T21:47:45.479Z,14.03
2022-11-20T21:50:13.770Z,14.67
2022-11-20T21:52:43.403Z,14.50
2022-11-20T21:55:11.687Z,15.53
2022-11-20T21:57:39.907Z,13.77
2022-11-20T22:00:09.423Z,14.50
2022-11-20T22:02:40.791Z,14.30
2022-11-20T22:05:10.093Z,14.77
2022-11-20T22:07:38.315Z,15.37
2022-11-20T22:10:08.675Z,15.50
2022-11-20T22:12:36.893Z,14.93
2022-11-20T22:15:04.676Z,14.00
2022-11-20T22:17:50.140Z,14.07
2022-11-20T22:20:18.651Z,14.10
2022-11-20T22:22:46.928Z,13.57
2022-11-20T22:25:16.786Z,14.17
2022-11-20T22:27:47.619Z,13.30
2022-11-20T22:30:15.926Z,14.27
2022-11-20T22:32:44.379Z,14.03
2022-11-20T22:35:12.638Z,14.57
2022-11-20T22:37:40.928Z,13.93
2022-11-20T22:40:10.543Z,14.80
2022-11-20T22:42:40.199Z,13.87
2022-11-20T22:45:09.582Z,14.87
2022-11-20T22:47:37.887Z,14.33
2022-11-20T22:50:07.023Z,13.93
2022-11-20T22:52:35.316Z,14.53
2022-11-20T22:55:03.560Z,14.57
2022-11-20T22:57:32.900Z,14.57
2022-11-20T23:00:02.518Z,14.27
2022-11-20T23:02:30.831Z,14.73
2022-11-20T23:04:59.019Z,14.70
2022-11-20T23:07:27.331Z,14.93
2022-11-20T23:09:55.587Z,14.20
2022-11-20T23:12:23.926Z,14.37
2022-11-20T23:14:52.166Z,14.37
2022-11-20T23:17:21.789Z,15.10
2022-11-20T23:19:50.073Z,13.83
2022-11-20T23:22:18.349Z,13.77
2022-11-20T23:24:46.597Z,14.73
2022-11-20T23:27:14.945Z,13.90
2022-11-20T23:29:43.656Z,14.17
2022-11-20T23:32:11.893Z,14.03
2022-11-20T23:34:41.596Z,14.67
2022-11-20T23:37:09.808Z,14.10
2022-11-20T23:39:38.243Z,15.37
2022-11-20T23:42:06.766Z,14.70
2022-11-20T23:44:35.109Z,15.23
2022-11-20T23:47:03.373Z,14.97
2022-11-20T23:49:31.610Z,14.83
2022-11-20T23:52:01.283Z,15.53
2022-11-20T23:54:29.826Z,13.73
2022-11-20T23:56:58.095Z,14.33
2022-11-20T23:59:26.473Z,15.37
